createdAt,value
2023-05-08T00:01:43.449Z,5.40
2023-05-08T00:04:11.429Z,5.30
2023-05-08T00:06:39.360Z,5.26
2023-05-08T00:09:07.274Z,5.20
2023-05-08T00:11:35.232Z,5.10
2023-05-08T00:14:03.366Z,5.10
2023-05-08T00:16:32.911Z,5.08
2023-05-08T00:19:00.812Z,5.00
2023-05-08T00:21:28.650Z,4.90
2023-05-08T00:23:56.526Z,4.90
2023-05-08T00:26:24.372Z,4.90
2023-05-08T00:28:52.219Z,4.80
2023-05-08T00:31:20.086Z,4.80
2023-05-08T00:33:47.956Z,4.70
2023-05-08T00:36:16.025Z,4.70
2023-05-08T00:38:43.949Z,4.66
2023-05-08T00:41:11.863Z,4.70
2023-05-08T00:43:40.338Z,4.70
2023-05-08T00:46:10.060Z,4.60
2023-05-08T00:48:39.919Z,4.60
2023-05-08T00:51:09.551Z,4.60
2023-05-08T00:53:43.039Z,4.60
2023-05-08T00:56:15.043Z,4.50
2023-05-08T00:58:44.696Z,4.40
2023-05-08T01:01:13.111Z,4.40
2023-05-08T01:03:41.435Z,4.40
2023-05-08T01:06:09.671Z,4.40
2023-05-08T01:08:37.517Z,4.30
2023-05-08T01:11:22.183Z,4.30
2023-05-08T01:14:15.197Z,4.30
2023-05-08T01:16:56.681Z,4.28
2023-05-08T01:19:49.057Z,4.28
2023-05-08T01:23:07.669Z,4.30
2023-05-08T01:26:03.497Z,4.30
2023-05-08T01:28:55.064Z,4.24
2023-05-08T01:32:00.534Z,4.20
2023-05-08T01:34:33.937Z,4.20
2023-05-08T01:37:08.914Z,4.20
2023-05-08T01:39:58.257Z,4.12
2023-05-08T01:42:28.782Z,4.10
2023-05-08T01:45:12.969Z,4.00
2023-05-08T01:47:42.936Z,4.00
2023-05-08T01:50:24.521Z,3.90
2023-05-08T01:53:05.584Z,3.86
2023-05-08T01:55:37.637Z,3.80
2023-05-08T01:58:10.430Z,3.80
2023-05-08T02:00:43.115Z,3.80
2023-05-08T02:03:15.052Z,3.70
2023-05-08T02:05:44.680Z,3.70
2023-05-08T02:08:15.234Z,3.68
2023-05-08T02:10:45.145Z,3.62
2023-05-08T02:13:19.285Z,3.60
2023-05-08T02:15:50.990Z,3.60
2023-05-08T02:18:23.925Z,3.60
2023-05-08T02:20:54.717Z,3.60
2023-05-08T02:23:27.456Z,3.58
2023-05-08T02:25:58.385Z,3.50
2023-05-08T02:28:30.098Z,3.48
2023-05-08T02:30:59.254Z,3.40
2023-05-08T02:33:29.929Z,3.40
2023-05-08T02:36:00.082Z,3.40
2023-05-08T02:38:32.071Z,3.40
2023-05-08T02:41:06.032Z,3.40
2023-05-08T02:43:33.983Z,3.40
2023-05-08T02:46:48.038Z,3.40
2023-05-08T02:49:33.634Z,3.40
2023-05-08T02:52:25.494Z,3.40
2023-05-08T02:55:20.953Z,3.40
2023-05-08T02:58:15.080Z,3.40
2023-05-08T03:00:49.317Z,3.30
2023-05-08T03:03:27.431Z,3.30
2023-05-08T03:06:01.659Z,3.30
2023-05-08T03:08:37.218Z,3.20
2023-05-08T03:11:13.798Z,3.20
2023-05-08T03:13:44.793Z,3.20
2023-05-08T03:16:20.773Z,3.18
2023-05-08T03:18:58.185Z,3.10
2023-05-08T03:21:30.937Z,3.10
2023-05-08T03:24:03.246Z,3.20
2023-05-08T03:26:32.046Z,3.20
2023-05-08T03:29:00.661Z,3.20
2023-05-08T03:31:32.248Z,3.20
2023-05-08T03:34:01.169Z,3.26
2023-05-08T03:36:30.566Z,3.30
2023-05-08T03:39:00.406Z,3.40
2023-05-08T03:41:28.615Z,3.54
2023-05-08T03:43:57.853Z,3.74
2023-05-08T03:46:26.554Z,4.08
2023-05-08T03:48:55.531Z,4.44
2023-05-08T03:51:23.900Z,4.86
2023-05-08T03:53:51.804Z,5.20
2023-05-08T03:56:19.597Z,5.50
2023-05-08T03:59:21.770Z,5.70
2023-05-08T04:02:40.812Z,6.00
2023-05-08T04:05:23.687Z,6.20
2023-05-08T04:08:09.899Z,6.36
2023-05-08T04:10:45.661Z,6.56
2023-05-08T04:13:25.974Z,6.70
2023-05-08T04:16:13.616Z,6.90
2023-05-08T04:18:48.337Z,7.10
2023-05-08T04:21:22.853Z,7.40
2023-05-08T04:23:53.132Z,7.70
2023-05-08T04:26:20.940Z,7.88
2023-05-08T04:28:49.571Z,8.00
2023-05-08T04:31:19.187Z,8.10
2023-05-08T04:33:47.629Z,8.20
2023-05-08T04:36:15.603Z,8.30
2023-05-08T04:38:44.548Z,8.40
2023-05-08T04:41:12.440Z,8.50
2023-05-08T04:43:40.391Z,8.60
2023-05-08T04:46:09.095Z,8.80
2023-05-08T04:48:36.982Z,8.90
2023-05-08T04:51:04.961Z,9.00
2023-05-08T04:53:32.759Z,9.14
2023-05-08T04:56:01.002Z,9.24
2023-05-08T04:58:29.208Z,9.34
2023-05-08T05:00:57.060Z,9.50
2023-05-08T05:03:24.946Z,9.70
2023-05-08T05:06:01.476Z,9.80
2023-05-08T05:08:29.640Z,10.00
2023-05-08T05:10:57.455Z,10.10
2023-05-08T05:13:25.496Z,10.30
2023-05-08T05:15:54.629Z,10.40
2023-05-08T05:18:22.707Z,10.50
2023-05-08T05:20:50.649Z,10.60
2023-05-08T05:23:18.418Z,10.76
2023-05-08T05:25:46.257Z,11.00
2023-05-08T05:28:14.135Z,11.10
2023-05-08T05:30:42.040Z,11.10
2023-05-08T05:33:09.994Z,11.10
2023-05-08T05:35:37.896Z,11.20
2023-05-08T05:38:05.687Z,11.22
2023-05-08T05:40:33.534Z,11.30
2023-05-08T05:43:01.359Z,11.60
2023-05-08T05:45:30.668Z,11.70
2023-05-08T05:48:00.638Z,11.70
2023-05-08T05:50:28.974Z,11.90
2023-05-08T05:52:56.914Z,12.04
2023-05-08T05:55:25.026Z,12.12
2023-05-08T05:57:52.789Z,12.42
2023-05-08T06:00:21.487Z,12.62
2023-05-08T06:02:49.671Z,12.70
2023-05-08T06:05:19.756Z,12.84
2023-05-08T06:07:47.663Z,13.00
2023-05-08T06:10:15.571Z,13.00
2023-05-08T06:12:43.475Z,13.00
2023-05-08T06:15:12.076Z,13.12
2023-05-08T06:17:40.719Z,13.20
2023-05-08T06:20:13.544Z,13.20
2023-05-08T06:22:42.026Z,13.30
2023-05-08T06:25:11.413Z,13.54
2023-05-08T06:27:39.547Z,13.76
2023-05-08T06:30:08.778Z,13.80
2023-05-08T06:32:37.118Z,14.00
2023-05-08T06:35:05.629Z,14.20
2023-05-08T06:37:33.562Z,14.30
2023-05-08T06:40:11.477Z,14.20
2023-05-08T06:42:41.191Z,14.32
2023-05-08T06:45:10.291Z,14.50
2023-05-08T06:47:38.343Z,14.70
2023-05-08T06:50:06.901Z,14.80
2023-05-08T06:52:35.636Z,15.00
2023-05-08T06:55:03.691Z,15.10
2023-05-08T06:57:31.794Z,15.28
2023-05-08T06:59:59.728Z,15.42
2023-05-08T07:02:27.626Z,15.64
2023-05-08T07:04:55.596Z,15.70
2023-05-08T07:07:23.522Z,15.84
2023-05-08T07:09:51.252Z,15.90
2023-05-08T07:12:19.003Z,15.90
2023-05-08T07:14:46.864Z,16.00
2023-05-08T07:17:14.840Z,16.10
2023-05-08T07:19:42.630Z,16.20
2023-05-08T07:22:11.049Z,16.30
2023-05-08T07:24:38.979Z,16.40
2023-05-08T07:27:06.855Z,16.48
2023-05-08T07:29:36.208Z,16.50
2023-05-08T07:32:08.328Z,16.60
2023-05-08T07:34:36.327Z,16.70
2023-05-08T07:37:04.271Z,16.70
2023-05-08T07:39:32.233Z,16.80
2023-05-08T07:42:00.595Z,16.88
2023-05-08T07:44:28.386Z,17.00
2023-05-08T07:46:56.624Z,17.08
2023-05-08T07:49:24.677Z,17.20
2023-05-08T07:51:52.703Z,17.20
2023-05-08T07:54:20.578Z,17.30
2023-05-08T07:56:48.479Z,17.40
2023-05-08T07:59:16.541Z,17.50
2023-05-08T08:01:47.543Z,17.50
2023-05-08T08:04:15.666Z,17.60
2023-05-08T08:06:43.581Z,17.70
2023-05-08T08:09:11.556Z,17.70
2023-05-08T08:11:39.375Z,17.74
2023-05-08T08:14:07.119Z,17.90
2023-05-08T08:16:35.008Z,17.90
2023-05-08T08:19:02.961Z,18.00
2023-05-08T08:21:31.692Z,18.00
2023-05-08T08:23:59.924Z,18.00
2023-05-08T08:26:27.762Z,18.10
2023-05-08T08:28:55.721Z,18.12
2023-05-08T08:31:23.829Z,18.20
2023-05-08T08:33:51.765Z,18.20
2023-05-08T08:36:20.394Z,18.30
2023-05-08T08:38:48.250Z,18.30
2023-05-08T08:41:16.146Z,18.20
2023-05-08T08:43:44.085Z,18.20
2023-05-08T08:46:15.497Z,18.20
2023-05-08T08:48:47.609Z,18.30
2023-05-08T08:51:36.980Z,18.30
2023-05-08T08:54:12.334Z,18.50
2023-05-08T08:56:43.116Z,18.60
2023-05-08T08:59:16.862Z,18.70
2023-05-08T09:01:48.689Z,18.86
2023-05-08T09:04:17.153Z,18.74
2023-05-08T09:06:46.110Z,18.50
2023-05-08T09:09:14.170Z,18.52
2023-05-08T09:11:45.828Z,18.80
2023-05-08T09:14:13.764Z,18.90
2023-05-08T09:16:41.759Z,19.00
2023-05-08T09:19:13.639Z,18.96
2023-05-08T09:21:41.943Z,19.00
2023-05-08T09:24:10.067Z,19.00
2023-05-08T09:26:41.025Z,19.02
2023-05-08T09:29:17.072Z,18.94
2023-05-08T09:31:47.830Z,18.80
2023-05-08T09:34:31.087Z,18.80
2023-05-08T09:37:05.129Z,18.84
2023-05-08T09:39:33.048Z,19.10
2023-05-08T09:42:04.345Z,19.10
2023-05-08T09:44:54.009Z,19.10
2023-05-08T09:47:25.157Z,19.10
2023-05-08T09:50:09.331Z,19.20
2023-05-08T09:52:45.904Z,19.40
2023-05-08T09:55:13.858Z,19.48
2023-05-08T09:57:58.850Z,19.58
2023-05-08T10:00:29.496Z,19.40
2023-05-08T10:03:04.403Z,19.40
2023-05-08T10:05:35.981Z,19.60
2023-05-08T10:08:24.175Z,19.70
2023-05-08T10:10:52.187Z,19.60
2023-05-08T10:13:21.389Z,19.70
2023-05-08T10:15:54.716Z,19.80
2023-05-08T10:18:27.761Z,19.90
2023-05-08T10:20:59.011Z,19.90
2023-05-08T10:23:26.877Z,20.00
2023-05-08T10:26:06.609Z,20.00
2023-05-08T10:28:48.377Z,20.20
2023-05-08T10:31:20.555Z,20.10
2023-05-08T10:33:54.936Z,20.18
2023-05-08T10:36:30.400Z,20.12
2023-05-08T10:39:00.123Z,20.00
2023-05-08T10:41:29.410Z,19.90
2023-05-08T10:44:02.446Z,19.92
2023-05-08T10:46:46.264Z,20.00
2023-05-08T10:49:34.968Z,20.00
2023-05-08T10:52:34.464Z,19.70
2023-05-08T10:55:29.645Z,19.60
2023-05-08T10:58:30.723Z,19.90
2023-05-08T11:01:04.312Z,19.90
2023-05-08T11:03:40.684Z,19.60
2023-05-08T11:06:08.956Z,19.48
2023-05-08T11:08:50.551Z,19.68
2023-05-08T11:11:28.269Z,19.82
2023-05-08T11:14:11.184Z,19.90
2023-05-08T11:16:54.194Z,19.94
2023-05-08T11:19:24.701Z,20.16
2023-05-08T11:22:11.392Z,20.22
2023-05-08T11:24:47.613Z,20.22
2023-05-08T11:27:16.299Z,20.10
2023-05-08T11:29:45.207Z,20.10
2023-05-08T11:32:13.100Z,20.00
2023-05-08T11:34:44.321Z,19.90
2023-05-08T11:37:20.259Z,19.90
2023-05-08T11:39:49.207Z,19.70
2023-05-08T11:42:29.193Z,19.50
2023-05-08T11:45:12.927Z,19.30
2023-05-08T11:47:44.504Z,19.26
2023-05-08T11:50:14.238Z,19.30
2023-05-08T11:52:43.748Z,19.40
2023-05-08T11:55:13.947Z,19.20
2023-05-08T11:57:41.876Z,19.10
2023-05-08T12:00:12.214Z,19.10
2023-05-08T12:02:46.358Z,19.10
2023-05-08T12:05:14.540Z,19.10
2023-05-08T12:07:46.835Z,19.00
2023-05-08T12:10:16.671Z,19.20
2023-05-08T12:12:45.544Z,19.20
2023-05-08T12:15:15.498Z,19.30
2023-05-08T12:17:43.971Z,19.40
2023-05-08T12:20:19.619Z,19.38
2023-05-08T12:22:53.155Z,19.40
2023-05-08T12:25:21.108Z,19.42
2023-05-08T12:27:49.053Z,19.50
2023-05-08T12:30:17.883Z,19.50
2023-05-08T12:32:47.087Z,19.50
2023-05-08T12:35:16.521Z,19.48
2023-05-08T12:37:46.274Z,19.50
2023-05-08T12:40:28.398Z,19.50
2023-05-08T12:42:56.314Z,19.42
2023-05-08T12:45:28.528Z,19.50
2023-05-08T12:48:04.881Z,19.46
2023-05-08T12:50:51.025Z,19.20
2023-05-08T12:53:21.525Z,19.00
2023-05-08T12:55:58.354Z,18.80
2023-05-08T12:58:30.140Z,18.60
2023-05-08T13:01:10.140Z,18.60
2023-05-08T13:03:39.386Z,18.78
2023-05-08T13:06:18.784Z,18.72
2023-05-08T13:08:53.246Z,18.60
2023-05-08T13:11:34.689Z,18.60
2023-05-08T13:14:02.686Z,18.56
2023-05-08T13:16:30.991Z,18.50
2023-05-08T13:18:59.098Z,18.50
2023-05-08T13:21:28.240Z,18.60
2023-05-08T13:23:57.078Z,18.60
2023-05-08T13:26:25.939Z,18.40
2023-05-08T13:28:56.284Z,18.24
2023-05-08T13:31:24.958Z,18.20
2023-05-08T13:33:53.185Z,18.20
2023-05-08T13:36:21.317Z,18.30
2023-05-08T13:38:51.663Z,18.40
2023-05-08T13:41:19.586Z,18.50
2023-05-08T13:43:48.024Z,18.40
2023-05-08T13:46:16.007Z,18.40
2023-05-08T13:48:43.907Z,18.40
2023-05-08T13:51:11.887Z,18.50
2023-05-08T13:53:39.841Z,18.50
2023-05-08T13:56:08.365Z,18.60
2023-05-08T13:58:36.340Z,18.60
2023-05-08T14:01:17.564Z,18.60
2023-05-08T14:03:52.529Z,18.50
2023-05-08T14:06:21.220Z,18.40
2023-05-08T14:08:51.082Z,18.36
2023-05-08T14:11:20.273Z,18.30
2023-05-08T14:13:48.093Z,18.30
2023-05-08T14:16:16.625Z,18.10
2023-05-08T14:18:44.890Z,18.00
2023-05-08T14:21:15.183Z,17.96
2023-05-08T14:23:45.449Z,17.72
2023-05-08T14:26:14.193Z,17.62
2023-05-08T14:28:42.180Z,17.70
2023-05-08T14:31:10.145Z,17.80
2023-05-08T14:33:38.871Z,17.80
2023-05-08T14:36:07.461Z,17.80
2023-05-08T14:38:35.284Z,17.80
2023-05-08T14:41:04.248Z,17.80
2023-05-08T14:43:32.652Z,17.80
2023-05-08T14:46:00.895Z,17.80
2023-05-08T14:48:28.913Z,17.80
2023-05-08T14:50:57.925Z,17.70
2023-05-08T14:53:26.448Z,17.60
2023-05-08T14:55:54.855Z,17.44
2023-05-08T14:58:22.997Z,17.30
2023-05-08T15:00:51.194Z,17.22
2023-05-08T15:03:19.385Z,17.20
2023-05-08T15:05:47.455Z,17.20
2023-05-08T15:08:15.476Z,17.20
2023-05-08T15:10:43.610Z,17.24
2023-05-08T15:13:11.657Z,17.28
2023-05-08T15:15:39.630Z,17.30
2023-05-08T15:18:07.507Z,17.36
2023-05-08T15:20:35.619Z,17.40
2023-05-08T15:23:03.683Z,17.30
2023-05-08T15:25:31.609Z,17.20
2023-05-08T15:28:00.810Z,17.10
2023-05-08T15:30:29.155Z,16.90
2023-05-08T15:32:57.186Z,16.90
2023-05-08T15:35:28.533Z,17.00
2023-05-08T15:37:57.845Z,17.10
2023-05-08T15:40:26.129Z,17.20
2023-05-08T15:42:54.217Z,17.20
2023-05-08T15:45:22.397Z,17.20
2023-05-08T15:47:53.056Z,17.20
2023-05-08T15:50:22.569Z,17.20
2023-05-08T15:52:50.673Z,17.20
2023-05-08T15:55:23.308Z,17.20
2023-05-08T15:57:51.710Z,17.20
2023-05-08T16:00:22.961Z,17.20
2023-05-08T16:02:54.053Z,17.30
2023-05-08T16:05:22.352Z,17.30
2023-05-08T16:07:52.389Z,17.38
2023-05-08T16:10:20.828Z,17.40
2023-05-08T16:12:50.502Z,17.40
2023-05-08T16:15:18.899Z,17.50
2023-05-08T16:17:47.628Z,17.78
2023-05-08T16:20:15.726Z,17.98
2023-05-08T16:22:43.541Z,18.26
2023-05-08T16:25:11.740Z,18.66
2023-05-08T16:27:39.742Z,18.96
2023-05-08T16:30:08.971Z,19.18
2023-05-08T16:32:36.867Z,19.38
2023-05-08T16:35:05.342Z,19.52
2023-05-08T16:37:33.736Z,19.60
2023-05-08T16:40:02.797Z,19.50
2023-05-08T16:42:30.939Z,19.60
2023-05-08T16:44:58.852Z,19.58
2023-05-08T16:47:30.011Z,19.50
2023-05-08T16:49:58.069Z,19.54
2023-05-08T16:52:26.349Z,19.60
2023-05-08T16:54:54.154Z,19.60
2023-05-08T16:57:22.222Z,19.60
2023-05-08T16:59:50.251Z,19.70
2023-05-08T17:02:19.267Z,19.60
2023-05-08T17:04:48.969Z,19.62
2023-05-08T17:07:18.148Z,19.38
2023-05-08T17:09:48.478Z,19.20
2023-05-08T17:12:16.964Z,19.20
2023-05-08T17:14:45.150Z,19.30
2023-05-08T17:17:16.029Z,19.30
2023-05-08T17:19:44.086Z,19.16
2023-05-08T17:22:13.231Z,19.10
2023-05-08T17:24:41.076Z,19.10
2023-05-08T17:27:09.104Z,18.90
2023-05-08T17:29:37.101Z,18.70
2023-05-08T17:32:05.833Z,18.40
2023-05-08T17:34:34.171Z,18.40
2023-05-08T17:37:02.221Z,18.22
2023-05-08T17:39:30.045Z,18.22
2023-05-08T17:41:58.150Z,18.06
2023-05-08T17:44:26.323Z,17.34
2023-05-08T17:46:54.514Z,16.58
2023-05-08T17:49:22.490Z,16.00
2023-05-08T17:51:50.542Z,15.64
2023-05-08T17:54:18.401Z,15.34
2023-05-08T17:56:46.922Z,15.00
2023-05-08T17:59:14.755Z,14.80
2023-05-08T18:01:44.427Z,14.60
2023-05-08T18:04:12.658Z,14.34
2023-05-08T18:06:40.847Z,14.20
2023-05-08T18:09:09.299Z,14.10
2023-05-08T18:11:39.071Z,13.94
2023-05-08T18:14:07.152Z,13.80
2023-05-08T18:16:35.416Z,13.76
2023-05-08T18:19:06.199Z,13.62
2023-05-08T18:21:34.906Z,13.58
2023-05-08T18:24:02.813Z,13.46
2023-05-08T18:26:30.909Z,13.36
2023-05-08T18:28:59.137Z,13.30
2023-05-08T18:31:27.015Z,13.20
2023-05-08T18:33:54.833Z,13.02
2023-05-08T18:36:22.917Z,12.90
2023-05-08T18:38:50.976Z,12.80
2023-05-08T18:41:18.850Z,12.80
2023-05-08T18:43:47.637Z,12.70
2023-05-08T18:46:17.499Z,12.60
2023-05-08T18:48:45.522Z,12.50
2023-05-08T18:51:13.414Z,12.40
2023-05-08T18:53:41.742Z,12.30
2023-05-08T18:56:11.651Z,12.20
2023-05-08T18:58:43.034Z,12.10
2023-05-08T19:01:11.328Z,12.00
2023-05-08T19:03:39.402Z,11.80
2023-05-08T19:06:07.582Z,11.60
2023-05-08T19:08:36.757Z,11.50
2023-05-08T19:11:04.971Z,11.40
2023-05-08T19:13:33.529Z,11.30
2023-05-08T19:16:01.881Z,11.20
2023-05-08T19:18:30.779Z,11.10
2023-05-08T19:20:58.729Z,11.10
2023-05-08T19:23:26.783Z,11.00
2023-05-08T19:25:54.998Z,10.90
2023-05-08T19:28:23.101Z,10.80
2023-05-08T19:30:51.004Z,10.70
2023-05-08T19:33:21.088Z,10.60
2023-05-08T19:35:49.209Z,10.50
2023-05-08T19:38:17.124Z,10.48
2023-05-08T19:40:56.230Z,10.40
2023-05-08T19:43:26.442Z,10.30
2023-05-08T19:45:56.096Z,10.20
2023-05-08T19:48:24.256Z,10.12
2023-05-08T19:50:54.667Z,10.10
2023-05-08T19:53:24.037Z,10.00
2023-05-08T19:55:52.054Z,10.00
2023-05-08T19:58:19.934Z,9.90
2023-05-08T20:03:19.584Z,9.80
2023-05-08T20:05:48.078Z,9.70
2023-05-08T20:08:16.142Z,9.70
2023-05-08T20:10:44.683Z,9.60
2023-05-08T20:13:12.585Z,9.52
2023-05-08T20:15:40.688Z,9.50
2023-05-08T20:18:08.834Z,9.40
2023-05-08T20:20:36.792Z,9.32
2023-05-08T20:23:04.719Z,9.30
2023-05-08T20:25:32.673Z,9.20
2023-05-08T20:28:00.586Z,9.10
2023-05-08T20:30:28.491Z,9.04
2023-05-08T20:32:56.518Z,9.00
2023-05-08T20:35:24.412Z,9.00
2023-05-08T20:37:52.284Z,8.96
2023-05-08T20:40:20.174Z,8.90
2023-05-08T20:42:47.958Z,8.90
2023-05-08T20:45:15.803Z,8.80
2023-05-08T20:47:43.592Z,8.70
2023-05-08T20:50:11.884Z,8.70
2023-05-08T20:52:41.845Z,8.70
2023-05-08T20:55:11.289Z,8.64
2023-05-08T20:57:39.428Z,8.60
2023-05-08T21:00:08.419Z,8.50
2023-05-08T21:02:38.874Z,8.40
2023-05-08T21:05:07.531Z,8.40
2023-05-08T21:07:36.299Z,8.40
2023-05-08T21:10:04.758Z,8.40
2023-05-08T21:12:32.507Z,8.40
2023-05-08T21:15:00.285Z,8.42
2023-05-08T21:17:28.046Z,8.40
2023-05-08T21:19:57.144Z,8.40
2023-05-08T21:22:25.007Z,8.40
2023-05-08T21:24:52.820Z,8.40
2023-05-08T21:27:20.711Z,8.30
2023-05-08T21:29:48.590Z,8.28
2023-05-08T21:32:16.542Z,8.20
2023-05-08T21:34:44.665Z,8.10
2023-05-08T21:37:12.491Z,8.10
2023-05-08T21:39:41.622Z,8.06
2023-05-08T21:42:09.656Z,8.00
2023-05-08T21:44:37.649Z,7.90
2023-05-08T21:47:06.365Z,7.90
2023-05-08T21:49:34.104Z,7.80
2023-05-08T21:52:01.964Z,7.80
2023-05-08T21:54:29.767Z,7.70
2023-05-08T21:56:57.554Z,7.78
2023-05-08T21:59:25.407Z,7.80
2023-05-08T22:01:53.671Z,7.70
2023-05-08T22:04:21.788Z,7.70
2023-05-08T22:06:49.650Z,7.60
2023-05-08T22:09:18.260Z,7.60
2023-05-08T22:11:46.352Z,7.60
2023-05-08T22:14:14.607Z,7.60
2023-05-08T22:16:43.104Z,7.60
2023-05-08T22:19:11.704Z,7.66
2023-05-08T22:21:40.315Z,7.60
2023-05-08T22:24:08.392Z,7.60
2023-05-08T22:26:36.219Z,7.50
2023-05-08T22:29:03.920Z,7.50
2023-05-08T22:31:31.789Z,7.50
2023-05-08T22:33:59.708Z,7.50
2023-05-08T22:36:28.138Z,7.50
2023-05-08T22:38:56.523Z,7.48
2023-05-08T22:41:24.449Z,7.40
2023-05-08T22:43:52.324Z,7.40
2023-05-08T22:46:20.467Z,7.40
2023-05-08T22:48:48.505Z,7.30
2023-05-08T22:51:16.628Z,7.30
2023-05-08T22:53:44.810Z,7.20
2023-05-08T22:56:12.646Z,7.20
2023-05-08T22:58:40.703Z,7.20
2023-05-08T23:01:08.541Z,7.16
2023-05-08T23:03:36.383Z,7.10
2023-05-08T23:06:04.257Z,7.10
2023-05-08T23:08:31.993Z,7.10
2023-05-08T23:10:59.747Z,7.10
2023-05-08T23:13:27.553Z,7.02
2023-05-08T23:15:55.462Z,7.00
2023-05-08T23:18:23.272Z,7.00
2023-05-08T23:20:51.042Z,7.00
2023-05-08T23:23:18.898Z,7.00
2023-05-08T23:25:46.993Z,6.90
2023-05-08T23:28:14.867Z,6.90
2023-05-08T23:30:42.771Z,6.90
2023-05-08T23:33:10.696Z,6.90
2023-05-08T23:35:38.446Z,6.90
2023-05-08T23:38:06.285Z,6.84
2023-05-08T23:40:34.043Z,6.80
2023-05-08T23:43:01.893Z,6.80
2023-05-08T23:45:29.756Z,6.80
2023-05-08T23:47:57.727Z,6.76
2023-05-08T23:50:25.725Z,6.70
2023-05-08T23:52:53.565Z,6.70
2023-05-08T23:55:21.434Z,6.70
2023-05-08T23:57:49.264Z,6.70
